createdAt,value
2022-08-05T00:04:55.358Z,100595.80
2022-08-05T00:10:00.192Z,100596.80
2022-08-05T00:15:54.133Z,100582.60
2022-08-05T00:20:30.248Z,100581.80
2022-08-05T00:25:46.048Z,100571.40
2022-08-05T00:30:52.148Z,100567.80
2022-08-05T00:36:15.119Z,100563.60
2022-08-05T00:41:52.232Z,100556.60
2022-08-05T00:47:03.988Z,100559.20
2022-08-05T00:52:09.883Z,100559.80
2022-08-05T00:57:16.258Z,100553.20
2022-08-05T01:02:28.281Z,100550.20
2022-08-05T01:07:32.417Z,100546.00
2022-08-05T01:12:38.589Z,100546.60
2022-08-05T01:18:05.814Z,100546.80
2022-08-05T01:23:34.835Z,100549.20
2022-08-05T01:28:52.500Z,100545.20
2022-08-05T01:34:13.819Z,100538.40
2022-08-05T01:39:47.229Z,100531.80
2022-08-05T01:44:54.369Z,100527.60
2022-08-05T01:50:02.758Z,100530.40
2022-08-05T01:55:13.866Z,100518.40
2022-08-05T02:00:19.257Z,100514.00
2022-08-05T02:05:31.145Z,100515.80
2022-08-05T02:10:49.194Z,100515.20
2022-08-05T02:16:22.084Z,100509.80
2022-08-05T02:21:43.423Z,100512.40
2022-08-05T02:26:58.958Z,100509.80
2022-08-05T02:32:06.909Z,100500.60
2022-08-05T02:37:14.778Z,100498.60
2022-08-05T02:42:25.821Z,100497.40
2022-08-05T02:48:06.427Z,100493.20
2022-08-05T02:53:01.171Z,100493.20
2022-08-05T02:58:20.224Z,100487.80
2022-08-05T03:03:33.686Z,100481.00
2022-08-05T03:08:43.760Z,100477.20
2022-08-05T03:13:51.030Z,100475.60
2022-08-05T03:19:12.681Z,100475.80
2022-08-05T03:24:30.244Z,100475.80
2022-08-05T03:29:45.136Z,100478.60
2022-08-05T03:35:01.066Z,100481.40
2022-08-05T03:40:11.881Z,100472.40
2022-08-05T03:45:22.814Z,100477.20
2022-08-05T03:50:49.436Z,100485.60
2022-08-05T03:56:18.072Z,100483.40
2022-08-05T04:01:35.721Z,100483.60
2022-08-05T04:06:47.396Z,100477.20
2022-08-05T04:11:52.894Z,100480.80
2022-08-05T04:16:57.950Z,100479.20
2022-08-05T04:22:08.823Z,100479.60
2022-08-05T04:27:15.869Z,100476.80
2022-08-05T04:32:31.292Z,100478.60
2022-08-05T04:38:02.580Z,100481.40
2022-08-05T04:43:05.451Z,100475.00
2022-08-05T04:48:26.919Z,100476.80
2022-08-05T04:53:35.341Z,100471.40
2022-08-05T04:58:40.069Z,100466.40
2022-08-05T05:03:45.329Z,100469.60
2022-08-05T05:08:49.935Z,100468.80
2022-08-05T05:13:55.262Z,100471.40
2022-08-05T05:19:19.023Z,100477.00
2022-08-05T05:24:56.209Z,100474.80
2022-08-05T05:30:05.063Z,100472.40
2022-08-05T05:35:10.249Z,100473.60
2022-08-05T05:40:26.837Z,100472.60
2022-08-05T05:45:32.291Z,100474.80
2022-08-05T05:50:43.814Z,100474.40
2022-08-05T05:55:52.451Z,100468.40
2022-08-05T06:01:12.816Z,100473.00
2022-08-05T06:06:19.556Z,100475.60
2022-08-05T06:11:29.050Z,100476.60
2022-08-05T06:16:37.177Z,100475.20
2022-08-05T06:21:42.949Z,100468.40
2022-08-05T06:26:54.202Z,100461.80
2022-08-05T06:32:00.097Z,100464.60
2022-08-05T06:37:04.534Z,100461.40
2022-08-05T06:42:10.492Z,100465.40
2022-08-05T06:48:11.545Z,100461.80
2022-08-05T06:52:40.606Z,100460.00
2022-08-05T06:57:57.900Z,100455.80
2022-08-05T07:03:09.738Z,100452.40
2022-08-05T07:08:14.577Z,100448.00
2022-08-05T07:13:54.288Z,100454.80
2022-08-05T07:19:02.755Z,100454.60
2022-08-05T07:24:11.126Z,100451.00
2022-08-05T07:29:16.248Z,100455.60
2022-08-05T07:34:21.598Z,100451.20
2022-08-05T07:40:04.306Z,100449.20
2022-08-05T07:44:57.100Z,100449.00
2022-08-05T07:50:06.616Z,100439.20
2022-08-05T07:55:44.002Z,100445.80
2022-08-05T08:00:36.839Z,100448.60
2022-08-05T08:05:49.832Z,100450.40
2022-08-05T08:10:56.371Z,100451.80
2022-08-05T08:16:35.317Z,100441.60
2022-08-05T08:21:25.101Z,100442.00
2022-08-05T08:26:30.157Z,100442.20
2022-08-05T08:31:34.612Z,100440.20
2022-08-05T08:36:50.584Z,100440.80
2022-08-05T08:42:02.529Z,100437.20
2022-08-05T08:47:47.747Z,100437.20
2022-08-05T08:52:37.955Z,100427.20
2022-08-05T08:57:58.079Z,100428.80
2022-08-05T09:03:07.284Z,100425.20
2022-08-05T09:08:11.436Z,100417.40
2022-08-05T09:13:16.767Z,100411.80
2022-08-05T09:18:21.211Z,100408.20
2022-08-05T09:23:27.232Z,100405.60
2022-08-05T09:28:42.074Z,100406.00
2022-08-05T09:34:00.194Z,100400.00
2022-08-05T09:39:18.514Z,100403.40
2022-08-05T09:44:49.319Z,100399.20
2022-08-05T09:50:01.113Z,100389.60
2022-08-05T09:55:58.579Z,100381.20
2022-08-05T10:00:37.168Z,100388.20
2022-08-05T10:05:42.423Z,100391.20
2022-08-05T10:10:48.164Z,100385.00
2022-08-05T10:15:54.578Z,100376.00
2022-08-05T10:21:06.350Z,100369.20
2022-08-05T10:26:16.014Z,100370.00
2022-08-05T10:32:53.997Z,100373.00
2022-08-05T10:36:46.524Z,100361.00
2022-08-05T10:42:08.569Z,100348.40
2022-08-05T10:47:26.585Z,100347.00
2022-08-05T10:53:01.060Z,100346.00
2022-08-05T10:58:15.647Z,100352.00
2022-08-05T11:03:27.089Z,100340.40
2022-08-05T11:08:37.386Z,100347.20
2022-08-05T11:13:57.634Z,100330.40
2022-08-05T11:20:11.183Z,100325.20
2022-08-05T11:26:06.036Z,100324.80
2022-08-05T11:30:58.729Z,100321.40
2022-08-05T11:36:11.514Z,100323.80
2022-08-05T11:41:58.120Z,100319.80
2022-08-05T11:47:09.403Z,100301.80
2022-08-05T11:52:29.477Z,100300.20
2022-08-05T11:58:08.679Z,100298.40
2022-08-05T12:02:59.433Z,100305.80
2022-08-05T12:08:09.693Z,100302.40
2022-08-05T12:13:27.876Z,100302.80
2022-08-05T12:18:42.648Z,100302.40
2022-08-05T12:24:04.445Z,100299.40
2022-08-05T12:29:26.995Z,100284.00
2022-08-05T12:34:37.601Z,100278.20
2022-08-05T12:39:42.228Z,100270.20
2022-08-05T12:44:47.966Z,100274.20
2022-08-05T12:50:03.253Z,100277.20
2022-08-05T12:55:25.413Z,100281.80
2022-08-05T13:02:02.842Z,100289.40
2022-08-05T13:05:59.824Z,100274.60
2022-08-05T13:11:05.171Z,100273.40
2022-08-05T13:16:17.543Z,100270.00
2022-08-05T13:21:22.453Z,100260.60
2022-08-05T13:26:32.525Z,100258.00
2022-08-05T13:32:03.979Z,100260.40
2022-08-05T13:37:01.141Z,100243.00
2022-08-05T13:42:05.944Z,100240.20
2022-08-05T13:47:10.448Z,100234.60
2022-08-05T13:52:35.875Z,100231.60
2022-08-05T13:57:50.810Z,100221.60
2022-08-05T14:02:58.428Z,100225.60
2022-08-05T14:08:11.129Z,100217.60
2022-08-05T14:13:26.377Z,100220.00
2022-08-05T14:18:30.647Z,100221.00
2022-08-05T14:23:37.176Z,100224.60
2022-08-05T14:28:52.193Z,100208.80
2022-08-05T14:33:59.784Z,100210.40
2022-08-05T14:39:06.725Z,100203.20
2022-08-05T14:44:21.965Z,100203.40
2022-08-05T14:49:59.233Z,100207.80
2022-08-05T14:54:53.512Z,100204.60
2022-08-05T14:59:57.859Z,100203.80
2022-08-05T15:05:08.584Z,100210.40
2022-08-05T15:10:18.202Z,100199.60
2022-08-05T15:15:54.536Z,100197.00
2022-08-05T15:20:58.012Z,100191.00
2022-08-05T15:26:12.571Z,100199.20
2022-08-05T15:31:17.112Z,100185.20
2022-08-05T15:36:25.670Z,100177.00
2022-08-05T15:41:55.409Z,100180.40
2022-08-05T15:47:00.713Z,100185.00
2022-08-05T15:52:16.843Z,100192.00
2022-08-05T15:57:34.796Z,100189.00
2022-08-05T16:02:39.837Z,100202.00
2022-08-05T16:07:46.437Z,100194.40
2022-08-05T16:12:52.078Z,100208.40
2022-08-05T16:17:57.661Z,100204.80
2022-08-05T16:23:04.297Z,100203.80
2022-08-05T16:28:14.165Z,100210.60
2022-08-05T16:33:19.654Z,100209.60
2022-08-05T16:38:28.040Z,100196.80
2022-08-05T16:43:36.199Z,100189.20
2022-08-05T16:48:41.441Z,100186.80
2022-08-05T16:54:04.997Z,100192.00
2022-08-05T16:59:15.693Z,100187.80
2022-08-05T17:04:26.314Z,100178.00
2022-08-05T17:09:57.688Z,100184.20
2022-08-05T17:14:59.423Z,100182.40
2022-08-05T17:20:09.752Z,100177.40
2022-08-05T17:25:39.264Z,100176.00
2022-08-05T17:30:50.706Z,100178.60
2022-08-05T17:36:10.067Z,100172.80
2022-08-05T17:42:18.393Z,100174.00
2022-08-05T17:46:47.891Z,100168.00
2022-08-05T17:51:53.979Z,100173.40
2022-08-05T17:56:59.699Z,100173.20
2022-08-05T18:02:04.152Z,100178.60
2022-08-05T18:07:15.124Z,100179.80
2022-08-05T18:12:22.238Z,100178.20
2022-08-05T18:17:59.723Z,100185.00
2022-08-05T18:22:54.494Z,100188.80
2022-08-05T18:28:07.608Z,100187.40
2022-08-05T18:33:14.463Z,100194.20
2022-08-05T18:38:26.074Z,100196.20
2022-08-05T18:43:38.365Z,100189.40
2022-08-05T18:48:47.739Z,100194.80
2022-08-05T18:53:58.837Z,100188.40
2022-08-05T18:59:43.058Z,100189.20
2022-08-05T19:04:32.643Z,100189.80
2022-08-05T19:09:40.144Z,100184.00
2022-08-05T19:15:00.821Z,100183.40
2022-08-05T19:20:09.975Z,100175.80
2022-08-05T19:25:29.662Z,100182.60
2022-08-05T19:30:34.927Z,100178.40
2022-08-05T19:35:55.965Z,100174.00
2022-08-05T19:41:01.452Z,100175.20
2022-08-05T19:46:06.000Z,100174.60
2022-08-05T19:52:05.668Z,100173.00
2022-08-05T19:56:50.619Z,100178.40
2022-08-05T20:01:55.937Z,100178.00
2022-08-05T20:07:00.816Z,100166.40
2022-08-05T20:12:06.203Z,100169.20
2022-08-05T20:17:12.540Z,100163.40
2022-08-05T20:22:20.796Z,100162.20
2022-08-05T20:27:41.762Z,100162.00
2022-08-05T20:32:46.500Z,100164.40
2022-08-05T20:38:06.147Z,100178.20
2022-08-05T20:43:12.447Z,100186.20
2022-08-05T20:48:17.316Z,100186.40
2022-08-05T20:53:37.153Z,100183.80
2022-08-05T20:58:45.444Z,100191.80
2022-08-05T21:03:49.652Z,100188.00
2022-08-05T21:08:55.126Z,100187.00
2022-08-05T21:14:02.331Z,100185.40
2022-08-05T21:19:06.483Z,100188.40
2022-08-05T21:24:12.743Z,100190.00
2022-08-05T21:29:17.302Z,100190.60
2022-08-05T21:34:24.462Z,100196.80
2022-08-05T21:39:28.681Z,100200.00
2022-08-05T21:44:35.843Z,100210.00
2022-08-05T21:49:58.654Z,100244.40
2022-08-05T21:55:06.860Z,100243.00
2022-08-05T22:00:13.267Z,100239.40
2022-08-05T22:05:19.025Z,100246.80
2022-08-05T22:10:34.588Z,100251.40
2022-08-05T22:16:02.035Z,100257.00
2022-08-05T22:21:18.887Z,100248.80
2022-08-05T22:26:42.470Z,100254.80
2022-08-05T22:31:55.261Z,100284.20
2022-08-05T22:37:04.777Z,100287.00
2022-08-05T22:42:15.445Z,100288.60
2022-08-05T22:47:31.281Z,100292.60
2022-08-05T22:52:36.147Z,100275.80
2022-08-05T22:57:40.746Z,100286.80
2022-08-05T23:02:47.000Z,100305.20
2022-08-05T23:07:53.205Z,100306.60
2022-08-05T23:12:57.633Z,100277.80
2022-08-05T23:18:11.437Z,100282.40
2022-08-05T23:23:16.065Z,100280.20
2022-08-05T23:28:20.610Z,100277.40
2022-08-05T23:34:06.214Z,100290.00
2022-08-05T23:38:50.578Z,100328.20
2022-08-05T23:44:05.297Z,100335.40
2022-08-05T23:49:15.836Z,100342.00
2022-08-05T23:54:25.820Z,100352.20
